LiveATC.Net - Listen to live air traffic control over the Internet!


ICAO: KBKL  IATA: BKL   Airport: Burke Lakefront Airport
City: Cleveland   State/Province: Ohio
Country: United States   Continent: North America
KBKL METAR Weather: KBKL 081426Z 23005KT 10SM SCT028 04/M02 A3031 RMK AO2 T00391022
KBKL ADS-B Flight Tracking  (ADSBExchange)
KBKL Flight Activity (FlightAware)
KBKL Airport Info   (iFlightPlanner)
KBKL VFR Sectional Chart   (iFlightPlanner) 
KBKL IFR Low Altitude Chart   (iFlightPlanner) 
KBKL IFR High Altitude Chart   (iFlightPlanner) 

KBKL Gnd/Twr/Misc
Feed Status: UP   Listeners: 1
Listen in your browser - HTML5 player (in browser, HTML5)
Click here to listen with your own player (launches your MP3 player)
Archive Access: KBKL Gnd/Twr/Misc
FacilityFrequency
Lakefront Area CTAF122.800
Lakefront Ground121.900
Lakefront Tower124.300
Lakefront UNICOM122.950

NOTICE

Unauthorized use prohibited. See LiveATC.net Terms of Service


Airport/ARTCC Code
Frequency Search
(e.g., 124.400, 128.75)
Site-wide search
 


Browse Feeds
Top 50 Feeds
HF Oceanic Feeds
Coverage Map
Bad Weather Areas

LiveATC FAQ
Offer LiveATC feed
Contact LiveATC.net
Press Inquiries

LiveATC on iPhone
LiveATC on Android

LiveATC Mobile
(Mobile browser)

ATC Audio Archives
Interesting Recordings

LiveATC Forums


Home Page
About LiveATC.net


Terms of Use
Privacy Policy

AIRMETs/SIGMETs

FAA Airport Status
NAS Status
Arrival Demand


Server Software By:
Icecast.org
Liquidsoap